sensor_id;sensor_type;location;lat;lon;timestamp;P1;durP1;ratioP1;P2;durP2;ratioP2
7813;SDS011;3952;48.364;16.022;2022-09-02T00:01:10;2.10;;;1.17;;
7813;SDS011;3952;48.364;16.022;2022-09-02T00:03:39;1.80;;;1.27;;
7813;SDS011;3952;48.364;16.022;2022-09-02T00:06:07;1.93;;;0.97;;
7813;SDS011;3952;48.364;16.022;2022-09-02T00:08:35;1.30;;;1.30;;
7813;SDS011;3952;48.364;16.022;2022-09-02T00:11:04;1.60;;;1.50;;
7813;SDS011;3952;48.364;16.022;2022-09-02T00:13:34;1.60;;;1.13;;
7813;SDS011;3952;48.364;16.022;2022-09-02T00:16:02;1.33;;;1.23;;
7813;SDS011;3952;48.364;16.022;2022-09-02T00:18:30;1.20;;;1.20;;
7813;SDS011;3952;48.364;16.022;2022-09-02T00:20:58;2.57;;;1.47;;
7813;SDS011;3952;48.364;16.022;2022-09-02T00:23:25;1.10;;;1.10;;
7813;SDS011;3952;48.364;16.022;2022-09-02T00:25:53;1.13;;;1.13;;
7813;SDS011;3952;48.364;16.022;2022-09-02T00:28:21;1.40;;;1.30;;
7813;SDS011;3952;48.364;16.022;2022-09-02T00:30:48;1.50;;;1.50;;
7813;SDS011;3952;48.364;16.022;2022-09-02T00:33:16;1.50;;;1.50;;
7813;SDS011;3952;48.364;16.022;2022-09-02T00:35:43;1.27;;;1.27;;
7813;SDS011;3952;48.364;16.022;2022-09-02T00:38:10;1.10;;;1.10;;
7813;SDS011;3952;48.364;16.022;2022-09-02T00:40:38;1.67;;;1.57;;
7813;SDS011;3952;48.364;16.022;2022-09-02T00:43:09;1.43;;;1.33;;
7813;SDS011;3952;48.364;16.022;2022-09-02T00:45:38;3.23;;;1.20;;
7813;SDS011;3952;48.364;16.022;2022-09-02T00:48:05;1.43;;;1.40;;
7813;SDS011;3952;48.364;16.022;2022-09-02T00:50:34;2.63;;;1.50;;
7813;SDS011;3952;48.364;16.022;2022-09-02T00:53:03;1.30;;;1.30;;
7813;SDS011;3952;48.364;16.022;2022-09-02T00:55:34;1.30;;;1.20;;
7813;SDS011;3952;48.364;16.022;2022-09-02T00:58:06;1.37;;;1.30;;
7813;SDS011;3952;48.364;16.022;2022-09-02T01:00:41;1.70;;;1.60;;
7813;SDS011;3952;48.364;16.022;2022-09-02T01:03:11;1.60;;;1.50;;
7813;SDS011;3952;48.364;16.022;2022-09-02T01:05:41;1.30;;;1.20;;
7813;SDS011;3952;48.364;16.022;2022-09-02T01:08:10;1.60;;;1.50;;
7813;SDS011;3952;48.364;16.022;2022-09-02T01:10:39;3.60;;;1.30;;
7813;SDS011;3952;48.364;16.022;2022-09-02T01:13:08;1.80;;;1.70;;
7813;SDS011;3952;48.364;16.022;2022-09-02T01:15:38;1.70;;;1.60;;
7813;SDS011;3952;48.364;16.022;2022-09-02T01:18:09;2.23;;;1.60;;
7813;SDS011;3952;48.364;16.022;2022-09-02T01:20:42;1.90;;;1.80;;
7813;SDS011;3952;48.364;16.022;2022-09-02T01:23:11;1.83;;;1.77;;
7813;SDS011;3952;48.364;16.022;2022-09-02T01:25:40;3.27;;;2.10;;
7813;SDS011;3952;48.364;16.022;2022-09-02T01:28:09;1.90;;;1.80;;
7813;SDS011;3952;48.364;16.022;2022-09-02T01:30:39;3.57;;;1.90;;
7813;SDS011;3952;48.364;16.022;2022-09-02T01:33:09;1.53;;;1.53;;
7813;SDS011;3952;48.364;16.022;2022-09-02T01:35:37;1.70;;;1.70;;
7813;SDS011;3952;48.364;16.022;2022-09-02T01:38:05;1.60;;;1.50;;
7813;SDS011;3952;48.364;16.022;2022-09-02T01:40:34;1.93;;;1.80;;
7813;SDS011;3952;48.364;16.022;2022-09-02T01:43:03;1.70;;;1.60;;
7813;SDS011;3952;48.364;16.022;2022-09-02T01:45:32;1.83;;;1.73;;
7813;SDS011;3952;48.364;16.022;2022-09-02T01:48:00;1.67;;;1.57;;
7813;SDS011;3952;48.364;16.022;2022-09-02T01:50:29;1.70;;;1.60;;
7813;SDS011;3952;48.364;16.022;2022-09-02T01:52:57;1.83;;;1.83;;
7813;SDS011;3952;48.364;16.022;2022-09-02T01:55:25;3.77;;;1.80;;
7813;SDS011;3952;48.364;16.022;2022-09-02T01:57:54;2.37;;;1.70;;
7813;SDS011;3952;48.364;16.022;2022-09-02T02:00:21;2.87;;;2.17;;
7813;SDS011;3952;48.364;16.022;2022-09-02T02:02:49;2.00;;;1.90;;
7813;SDS011;3952;48.364;16.022;2022-09-02T02:05:16;1.70;;;1.60;;
7813;SDS011;3952;48.364;16.022;2022-09-02T02:07:44;1.80;;;1.80;;
7813;SDS011;3952;48.364;16.022;2022-09-02T02:10:11;1.80;;;1.70;;
7813;SDS011;3952;48.364;16.022;2022-09-02T02:12:41;2.00;;;1.80;;
7813;SDS011;3952;48.364;16.022;2022-09-02T02:15:11;2.20;;;2.00;;
7813;SDS011;3952;48.364;16.022;2022-09-02T02:17:40;1.70;;;1.60;;
7813;SDS011;3952;48.364;16.022;2022-09-02T02:20:08;2.00;;;1.90;;
7813;SDS011;3952;48.364;16.022;2022-09-02T02:22:39;2.00;;;1.90;;
7813;SDS011;3952;48.364;16.022;2022-09-02T02:25:07;2.20;;;1.67;;
7813;SDS011;3952;48.364;16.022;2022-09-02T02:27:35;1.90;;;1.80;;
7813;SDS011;3952;48.364;16.022;2022-09-02T02:30:03;2.20;;;2.03;;
7813;SDS011;3952;48.364;16.022;2022-09-02T02:32:33;3.10;;;1.90;;
7813;SDS011;3952;48.364;16.022;2022-09-02T02:35:02;1.70;;;1.70;;
7813;SDS011;3952;48.364;16.022;2022-09-02T02:37:30;2.20;;;2.00;;
7813;SDS011;3952;48.364;16.022;2022-09-02T02:39:57;2.03;;;1.80;;
7813;SDS011;3952;48.364;16.022;2022-09-02T02:42:25;1.77;;;1.67;;
7813;SDS011;3952;48.364;16.022;2022-09-02T02:44:52;2.77;;;2.00;;
7813;SDS011;3952;48.364;16.022;2022-09-02T02:47:19;3.53;;;1.83;;
7813;SDS011;3952;48.364;16.022;2022-09-02T02:49:48;1.70;;;1.70;;
7813;SDS011;3952;48.364;16.022;2022-09-02T02:52:15;1.67;;;1.60;;
7813;SDS011;3952;48.364;16.022;2022-09-02T02:54:42;2.03;;;1.93;;
7813;SDS011;3952;48.364;16.022;2022-09-02T02:57:10;2.13;;;1.80;;
7813;SDS011;3952;48.364;16.022;2022-09-02T02:59:38;2.10;;;2.03;;
7813;SDS011;3952;48.364;16.022;2022-09-02T03:02:06;2.20;;;1.90;;
7813;SDS011;3952;48.364;16.022;2022-09-02T03:04:33;2.03;;;1.93;;
7813;SDS011;3952;48.364;16.022;2022-09-02T03:07:02;1.97;;;1.87;;
7813;SDS011;3952;48.364;16.022;2022-09-02T03:09:31;2.13;;;2.03;;
7813;SDS011;3952;48.364;16.022;2022-09-02T03:11:58;1.83;;;1.73;;
7813;SDS011;3952;48.364;16.022;2022-09-02T03:14:26;1.90;;;1.80;;
7813;SDS011;3952;48.364;16.022;2022-09-02T03:16:55;1.80;;;1.70;;
7813;SDS011;3952;48.364;16.022;2022-09-02T03:19:22;2.00;;;1.90;;
7813;SDS011;3952;48.364;16.022;2022-09-02T03:21:49;2.00;;;1.80;;
7813;SDS011;3952;48.364;16.022;2022-09-02T03:24:18;1.77;;;1.67;;
7813;SDS011;3952;48.364;16.022;2022-09-02T03:26:45;1.90;;;1.80;;
7813;SDS011;3952;48.364;16.022;2022-09-02T03:29:12;1.93;;;1.73;;
7813;SDS011;3952;48.364;16.022;2022-09-02T03:31:39;1.87;;;1.77;;
7813;SDS011;3952;48.364;16.022;2022-09-02T03:34:07;4.27;;;2.00;;
7813;SDS011;3952;48.364;16.022;2022-09-02T03:36:35;2.23;;;1.97;;
7813;SDS011;3952;48.364;16.022;2022-09-02T03:39:04;3.07;;;1.80;;
7813;SDS011;3952;48.364;16.022;2022-09-02T03:41:33;1.80;;;1.70;;
7813;SDS011;3952;48.364;16.022;2022-09-02T03:44:00;1.57;;;1.57;;
7813;SDS011;3952;48.364;16.022;2022-09-02T03:46:28;2.37;;;1.80;;
7813;SDS011;3952;48.364;16.022;2022-09-02T03:48:55;3.00;;;1.80;;
7813;SDS011;3952;48.364;16.022;2022-09-02T03:51:23;2.10;;;1.70;;
7813;SDS011;3952;48.364;16.022;2022-09-02T03:53:51;1.53;;;1.50;;
7813;SDS011;3952;48.364;16.022;2022-09-02T03:56:18;1.97;;;1.80;;
7813;SDS011;3952;48.364;16.022;2022-09-02T03:58:48;1.70;;;1.60;;
7813;SDS011;3952;48.364;16.022;2022-09-02T04:01:17;1.80;;;1.80;;
7813;SDS011;3952;48.364;16.022;2022-09-02T04:03:46;1.90;;;1.80;;
7813;SDS011;3952;48.364;16.022;2022-09-02T04:06:15;1.53;;;1.50;;
7813;SDS011;3952;48.364;16.022;2022-09-02T04:08:44;1.80;;;1.70;;
7813;SDS011;3952;48.364;16.022;2022-09-02T04:11:12;1.57;;;1.50;;
7813;SDS011;3952;48.364;16.022;2022-09-02T04:13:42;2.10;;;1.80;;
7813;SDS011;3952;48.364;16.022;2022-09-02T04:16:11;1.50;;;1.50;;
7813;SDS011;3952;48.364;16.022;2022-09-02T04:18:40;1.17;;;1.17;;
7813;SDS011;3952;48.364;16.022;2022-09-02T04:21:08;1.77;;;1.67;;
7813;SDS011;3952;48.364;16.022;2022-09-02T04:23:36;1.77;;;1.67;;
7813;SDS011;3952;48.364;16.022;2022-09-02T04:26:05;1.53;;;1.43;;
7813;SDS011;3952;48.364;16.022;2022-09-02T04:28:34;2.93;;;1.83;;
7813;SDS011;3952;48.364;16.022;2022-09-02T04:31:02;2.50;;;1.53;;
7813;SDS011;3952;48.364;16.022;2022-09-02T04:33:31;1.33;;;1.33;;
7813;SDS011;3952;48.364;16.022;2022-09-02T04:35:59;1.47;;;1.47;;
7813;SDS011;3952;48.364;16.022;2022-09-02T04:38:29;1.80;;;1.70;;
7813;SDS011;3952;48.364;16.022;2022-09-02T04:40:56;1.53;;;1.53;;
7813;SDS011;3952;48.364;16.022;2022-09-02T04:43:24;1.40;;;1.40;;
7813;SDS011;3952;48.364;16.022;2022-09-02T04:45:51;1.60;;;1.50;;
7813;SDS011;3952;48.364;16.022;2022-09-02T04:48:18;1.53;;;1.43;;
7813;SDS011;3952;48.364;16.022;2022-09-02T04:50:48;2.93;;;1.67;;
7813;SDS011;3952;48.364;16.022;2022-09-02T04:53:15;2.80;;;1.53;;
7813;SDS011;3952;48.364;16.022;2022-09-02T04:55:43;1.70;;;1.60;;
7813;SDS011;3952;48.364;16.022;2022-09-02T04:58:10;2.23;;;1.90;;
7813;SDS011;3952;48.364;16.022;2022-09-02T05:00:39;1.73;;;1.63;;
7813;SDS011;3952;48.364;16.022;2022-09-02T05:03:07;3.10;;;1.97;;
7813;SDS011;3952;48.364;16.022;2022-09-02T05:05:35;3.13;;;2.40;;
7813;SDS011;3952;48.364;16.022;2022-09-02T05:08:05;3.40;;;2.27;;
7813;SDS011;3952;48.364;16.022;2022-09-02T05:10:34;2.30;;;1.90;;
7813;SDS011;3952;48.364;16.022;2022-09-02T05:13:02;2.30;;;2.20;;
7813;SDS011;3952;48.364;16.022;2022-09-02T05:15:30;3.17;;;1.70;;
7813;SDS011;3952;48.364;16.022;2022-09-02T05:17:57;2.00;;;1.90;;
7813;SDS011;3952;48.364;16.022;2022-09-02T05:20:24;2.77;;;2.00;;
7813;SDS011;3952;48.364;16.022;2022-09-02T05:22:52;2.40;;;2.10;;
7813;SDS011;3952;48.364;16.022;2022-09-02T05:25:21;2.40;;;2.30;;
7813;SDS011;3952;48.364;16.022;2022-09-02T05:27:49;2.30;;;2.20;;
7813;SDS011;3952;48.364;16.022;2022-09-02T05:30:16;2.23;;;2.13;;
7813;SDS011;3952;48.364;16.022;2022-09-02T05:32:43;2.17;;;2.07;;
7813;SDS011;3952;48.364;16.022;2022-09-02T05:35:11;2.20;;;2.10;;
7813;SDS011;3952;48.364;16.022;2022-09-02T05:37:38;2.17;;;2.07;;
7813;SDS011;3952;48.364;16.022;2022-09-02T05:40:06;2.30;;;2.13;;
7813;SDS011;3952;48.364;16.022;2022-09-02T05:42:38;2.07;;;1.97;;
7813;SDS011;3952;48.364;16.022;2022-09-02T05:45:05;2.50;;;2.40;;
7813;SDS011;3952;48.364;16.022;2022-09-02T05:47:34;2.30;;;2.20;;
7813;SDS011;3952;48.364;16.022;2022-09-02T05:50:01;2.60;;;2.40;;
7813;SDS011;3952;48.364;16.022;2022-09-02T05:52:29;2.43;;;2.33;;
7813;SDS011;3952;48.364;16.022;2022-09-02T05:54:57;2.40;;;2.20;;
7813;SDS011;3952;48.364;16.022;2022-09-02T05:57:25;2.93;;;2.83;;
7813;SDS011;3952;48.364;16.022;2022-09-02T05:59:54;2.70;;;2.60;;
7813;SDS011;3952;48.364;16.022;2022-09-02T06:02:21;2.30;;;2.20;;
7813;SDS011;3952;48.364;16.022;2022-09-02T06:04:50;2.50;;;2.40;;
7813;SDS011;3952;48.364;16.022;2022-09-02T06:07:19;2.23;;;2.13;;
7813;SDS011;3952;48.364;16.022;2022-09-02T06:09:48;2.37;;;2.00;;
7813;SDS011;3952;48.364;16.022;2022-09-02T06:12:16;2.03;;;1.93;;
7813;SDS011;3952;48.364;16.022;2022-09-02T06:14:45;1.93;;;1.83;;
7813;SDS011;3952;48.364;16.022;2022-09-02T06:17:14;2.20;;;2.00;;
7813;SDS011;3952;48.364;16.022;2022-09-02T06:19:41;2.30;;;1.80;;
7813;SDS011;3952;48.364;16.022;2022-09-02T06:22:08;4.20;;;2.10;;
7813;SDS011;3952;48.364;16.022;2022-09-02T06:24:35;1.90;;;1.70;;
7813;SDS011;3952;48.364;16.022;2022-09-02T06:27:03;2.17;;;2.07;;
7813;SDS011;3952;48.364;16.022;2022-09-02T06:29:31;1.57;;;1.50;;
7813;SDS011;3952;48.364;16.022;2022-09-02T06:31:59;1.83;;;1.73;;
7813;SDS011;3952;48.364;16.022;2022-09-02T06:34:27;2.40;;;2.30;;
7813;SDS011;3952;48.364;16.022;2022-09-02T06:36:55;2.77;;;1.70;;
7813;SDS011;3952;48.364;16.022;2022-09-02T06:39:23;1.57;;;1.50;;
7813;SDS011;3952;48.364;16.022;2022-09-02T06:41:51;2.37;;;1.80;;
7813;SDS011;3952;48.364;16.022;2022-09-02T06:44:20;1.60;;;1.50;;
7813;SDS011;3952;48.364;16.022;2022-09-02T06:46:48;1.60;;;1.50;;
7813;SDS011;3952;48.364;16.022;2022-09-02T06:49:19;1.60;;;1.50;;
7813;SDS011;3952;48.364;16.022;2022-09-02T06:51:49;1.37;;;1.37;;
7813;SDS011;3952;48.364;16.022;2022-09-02T06:54:19;1.70;;;1.60;;
7813;SDS011;3952;48.364;16.022;2022-09-02T06:56:48;1.93;;;1.67;;
7813;SDS011;3952;48.364;16.022;2022-09-02T06:59:17;1.70;;;1.60;;
7813;SDS011;3952;48.364;16.022;2022-09-02T07:01:45;1.63;;;1.53;;
7813;SDS011;3952;48.364;16.022;2022-09-02T07:04:13;1.57;;;1.50;;
7813;SDS011;3952;48.364;16.022;2022-09-02T07:07:02;1.60;;;1.50;;
7813;SDS011;3952;48.364;16.022;2022-09-02T07:09:31;1.57;;;1.47;;
7813;SDS011;3952;48.364;16.022;2022-09-02T07:11:58;1.70;;;1.60;;
7813;SDS011;3952;48.364;16.022;2022-09-02T07:14:28;2.03;;;1.60;;
7813;SDS011;3952;48.364;16.022;2022-09-02T07:16:55;1.57;;;1.47;;
7813;SDS011;3952;48.364;16.022;2022-09-02T07:19:24;1.73;;;1.47;;
7813;SDS011;3952;48.364;16.022;2022-09-02T07:21:51;1.73;;;1.40;;
7813;SDS011;3952;48.364;16.022;2022-09-02T07:24:20;2.03;;;1.93;;
7813;SDS011;3952;48.364;16.022;2022-09-02T07:26:48;2.13;;;1.87;;
7813;SDS011;3952;48.364;16.022;2022-09-02T07:29:16;2.27;;;1.80;;
7813;SDS011;3952;48.364;16.022;2022-09-02T07:31:45;2.03;;;1.70;;
7813;SDS011;3952;48.364;16.022;2022-09-02T07:34:14;1.93;;;1.83;;
7813;SDS011;3952;48.364;16.022;2022-09-02T07:36:42;1.50;;;1.40;;
7813;SDS011;3952;48.364;16.022;2022-09-02T07:39:11;3.83;;;1.50;;
7813;SDS011;3952;48.364;16.022;2022-09-02T07:41:41;2.27;;;1.80;;
7813;SDS011;3952;48.364;16.022;2022-09-02T07:44:11;3.37;;;1.83;;
7813;SDS011;3952;48.364;16.022;2022-09-02T07:46:38;1.57;;;1.43;;
7813;SDS011;3952;48.364;16.022;2022-09-02T07:49:07;4.93;;;1.63;;
7813;SDS011;3952;48.364;16.022;2022-09-02T07:51:37;2.03;;;1.93;;
7813;SDS011;3952;48.364;16.022;2022-09-02T07:54:07;1.67;;;1.57;;
7813;SDS011;3952;48.364;16.022;2022-09-02T07:56:37;2.10;;;1.63;;
7813;SDS011;3952;48.364;16.022;2022-09-02T07:59:06;1.73;;;1.63;;
7813;SDS011;3952;48.364;16.022;2022-09-02T08:01:33;2.13;;;1.57;;
7813;SDS011;3952;48.364;16.022;2022-09-02T08:04:01;2.30;;;1.70;;
7813;SDS011;3952;48.364;16.022;2022-09-02T08:06:30;1.47;;;1.40;;
7813;SDS011;3952;48.364;16.022;2022-09-02T08:08:58;1.47;;;1.40;;
7813;SDS011;3952;48.364;16.022;2022-09-02T08:11:25;3.47;;;1.60;;
7813;SDS011;3952;48.364;16.022;2022-09-02T08:13:52;1.37;;;1.17;;
7813;SDS011;3952;48.364;16.022;2022-09-02T08:16:21;1.70;;;1.60;;
7813;SDS011;3952;48.364;16.022;2022-09-02T08:18:48;1.80;;;1.50;;
7813;SDS011;3952;48.364;16.022;2022-09-02T08:21:15;1.80;;;1.70;;
7813;SDS011;3952;48.364;16.022;2022-09-02T08:23:43;3.37;;;1.10;;
7813;SDS011;3952;48.364;16.022;2022-09-02T08:26:11;1.60;;;1.47;;
7813;SDS011;3952;48.364;16.022;2022-09-02T08:28:39;1.73;;;1.60;;
7813;SDS011;3952;48.364;16.022;2022-09-02T08:31:06;1.60;;;1.50;;
7813;SDS011;3952;48.364;16.022;2022-09-02T08:33:34;3.60;;;1.80;;
7813;SDS011;3952;48.364;16.022;2022-09-02T08:36:03;1.63;;;1.53;;
7813;SDS011;3952;48.364;16.022;2022-09-02T08:38:33;2.40;;;1.40;;
7813;SDS011;3952;48.364;16.022;2022-09-02T08:41:00;1.60;;;1.50;;
7813;SDS011;3952;48.364;16.022;2022-09-02T08:43:30;2.03;;;1.53;;
7813;SDS011;3952;48.364;16.022;2022-09-02T08:46:04;1.30;;;1.30;;
7813;SDS011;3952;48.364;16.022;2022-09-02T08:48:37;1.87;;;1.77;;
7813;SDS011;3952;48.364;16.022;2022-09-02T08:51:09;2.03;;;1.60;;
7813;SDS011;3952;48.364;16.022;2022-09-02T08:53:43;3.00;;;1.60;;
7813;SDS011;3952;48.364;16.022;2022-09-02T08:56:15;1.23;;;1.23;;
7813;SDS011;3952;48.364;16.022;2022-09-02T08:58:44;1.50;;;1.40;;
7813;SDS011;3952;48.364;16.022;2022-09-02T09:01:17;1.40;;;1.30;;
7813;SDS011;3952;48.364;16.022;2022-09-02T09:04:00;2.87;;;1.30;;
7813;SDS011;3952;48.364;16.022;2022-09-02T09:06:38;1.90;;;1.50;;
7813;SDS011;3952;48.364;16.022;2022-09-02T09:09:20;1.57;;;1.47;;
7813;SDS011;3952;48.364;16.022;2022-09-02T09:11:58;1.47;;;1.40;;
7813;SDS011;3952;48.364;16.022;2022-09-02T09:14:34;1.70;;;1.30;;
7813;SDS011;3952;48.364;16.022;2022-09-02T09:17:08;1.83;;;1.13;;
7813;SDS011;3952;48.364;16.022;2022-09-02T09:19:46;1.93;;;1.70;;
7813;SDS011;3952;48.364;16.022;2022-09-02T09:22:16;2.07;;;1.40;;
7813;SDS011;3952;48.364;16.022;2022-09-02T09:24:45;1.67;;;1.57;;
7813;SDS011;3952;48.364;16.022;2022-09-02T09:27:14;1.40;;;1.30;;
7813;SDS011;3952;48.364;16.022;2022-09-02T09:29:43;2.73;;;1.53;;
7813;SDS011;3952;48.364;16.022;2022-09-02T09:32:13;1.53;;;1.30;;
7813;SDS011;3952;48.364;16.022;2022-09-02T09:34:58;1.23;;;1.17;;
7813;SDS011;3952;48.364;16.022;2022-09-02T09:37:31;1.87;;;1.53;;
7813;SDS011;3952;48.364;16.022;2022-09-02T09:40:00;1.27;;;1.20;;
7813;SDS011;3952;48.364;16.022;2022-09-02T09:42:45;4.10;;;1.47;;
7813;SDS011;3952;48.364;16.022;2022-09-02T09:45:16;1.73;;;1.23;;
7813;SDS011;3952;48.364;16.022;2022-09-02T09:47:57;1.83;;;1.60;;
7813;SDS011;3952;48.364;16.022;2022-09-02T09:53:40;2.53;;;1.33;;
7813;SDS011;3952;48.364;16.022;2022-09-02T09:56:20;1.40;;;1.27;;
7813;SDS011;3952;48.364;16.022;2022-09-02T09:58:58;3.57;;;1.43;;
7813;SDS011;3952;48.364;16.022;2022-09-02T10:01:27;1.33;;;1.30;;
7813;SDS011;3952;48.364;16.022;2022-09-02T10:03:57;1.65;;;1.48;;
7813;SDS011;3952;48.364;16.022;2022-09-02T10:06:38;1.50;;;1.40;;
7813;SDS011;3952;48.364;16.022;2022-09-02T10:11:59;1.98;;;1.40;;
7813;SDS011;3952;48.364;16.022;2022-09-02T10:14:32;3.88;;;1.70;;
7813;SDS011;3952;48.364;16.022;2022-09-02T10:17:07;1.25;;;1.15;;
7813;SDS011;3952;48.364;16.022;2022-09-02T10:19:54;3.70;;;1.30;;
7813;SDS011;3952;48.364;16.022;2022-09-02T10:22:39;1.38;;;1.38;;
7813;SDS011;3952;48.364;16.022;2022-09-02T10:25:31;1.30;;;1.20;;
7813;SDS011;3952;48.364;16.022;2022-09-02T10:28:07;1.37;;;1.10;;
7813;SDS011;3952;48.364;16.022;2022-09-02T10:30:43;1.42;;;1.33;;
7813;SDS011;3952;48.364;16.022;2022-09-02T10:33:21;1.33;;;1.23;;
7813;SDS011;3952;48.364;16.022;2022-09-02T10:35:56;1.48;;;1.38;;
7813;SDS011;3952;48.364;16.022;2022-09-02T10:38:36;1.80;;;1.42;;
7813;SDS011;3952;48.364;16.022;2022-09-02T10:41:11;2.28;;;1.67;;
7813;SDS011;3952;48.364;16.022;2022-09-02T10:44:06;2.23;;;1.53;;
7813;SDS011;3952;48.364;16.022;2022-09-02T10:46:57;1.05;;;1.05;;
7813;SDS011;3952;48.364;16.022;2022-09-02T10:49:30;2.20;;;1.50;;
7813;SDS011;3952;48.364;16.022;2022-09-02T10:52:22;2.23;;;1.80;;
7813;SDS011;3952;48.364;16.022;2022-09-02T10:55:14;4.60;;;1.40;;
7813;SDS011;3952;48.364;16.022;2022-09-02T10:57:49;2.00;;;1.43;;
7813;SDS011;3952;48.364;16.022;2022-09-02T11:00:24;1.65;;;1.40;;
7813;SDS011;3952;48.364;16.022;2022-09-02T11:02:54;2.50;;;1.27;;
7813;SDS011;3952;48.364;16.022;2022-09-02T11:05:33;1.60;;;1.33;;
7813;SDS011;3952;48.364;16.022;2022-09-02T11:08:09;1.00;;;1.00;;
7813;SDS011;3952;48.364;16.022;2022-09-02T11:10:42;3.00;;;1.30;;
7813;SDS011;3952;48.364;16.022;2022-09-02T11:13:17;1.88;;;1.13;;
7813;SDS011;3952;48.364;16.022;2022-09-02T11:15:50;1.33;;;1.20;;
7813;SDS011;3952;48.364;16.022;2022-09-02T11:18:23;1.23;;;1.13;;
7813;SDS011;3952;48.364;16.022;2022-09-02T11:20:58;1.77;;;1.30;;
7813;SDS011;3952;48.364;16.022;2022-09-02T11:23:33;2.13;;;1.33;;
7813;SDS011;3952;48.364;16.022;2022-09-02T11:26:09;4.30;;;1.50;;
7813;SDS011;3952;48.364;16.022;2022-09-02T11:28:43;3.28;;;1.40;;
7813;SDS011;3952;48.364;16.022;2022-09-02T11:31:18;1.40;;;1.30;;
7813;SDS011;3952;48.364;16.022;2022-09-02T11:33:51;1.10;;;1.00;;
7813;SDS011;3952;48.364;16.022;2022-09-02T11:36:21;2.78;;;1.35;;
7813;SDS011;3952;48.364;16.022;2022-09-02T11:38:51;2.90;;;1.17;;
7813;SDS011;3952;48.364;16.022;2022-09-02T11:41:29;3.30;;;1.42;;
7813;SDS011;3952;48.364;16.022;2022-09-02T11:44:21;2.80;;;1.52;;
7813;SDS011;3952;48.364;16.022;2022-09-02T11:47:17;2.40;;;1.40;;
7813;SDS011;3952;48.364;16.022;2022-09-02T11:50:08;2.65;;;1.30;;
7813;SDS011;3952;48.364;16.022;2022-09-02T11:52:58;1.50;;;1.40;;
7813;SDS011;3952;48.364;16.022;2022-09-02T11:55:37;1.77;;;1.13;;
7813;SDS011;3952;48.364;16.022;2022-09-02T11:58:08;1.27;;;1.27;;
7813;SDS011;3952;48.364;16.022;2022-09-02T12:00:55;1.48;;;1.38;;
7813;SDS011;3952;48.364;16.022;2022-09-02T12:03:30;1.98;;;1.50;;
7813;SDS011;3952;48.364;16.022;2022-09-02T12:06:04;2.15;;;1.67;;
7813;SDS011;3952;48.364;16.022;2022-09-02T12:11:35;1.00;;;1.00;;
7813;SDS011;3952;48.364;16.022;2022-09-02T12:17:36;1.35;;;1.35;;
7813;SDS011;3952;48.364;16.022;2022-09-02T12:20:06;1.20;;;1.10;;
7813;SDS011;3952;48.364;16.022;2022-09-02T12:22:38;1.30;;;1.20;;
7813;SDS011;3952;48.364;16.022;2022-09-02T12:28:09;1.30;;;1.30;;
7813;SDS011;3952;48.364;16.022;2022-09-02T12:33:38;1.08;;;1.08;;
7813;SDS011;3952;48.364;16.022;2022-09-02T12:36:08;1.10;;;1.02;;
7813;SDS011;3952;48.364;16.022;2022-09-02T12:38:58;1.17;;;1.17;;
7813;SDS011;3952;48.364;16.022;2022-09-02T12:42:09;3.17;;;1.50;;
7813;SDS011;3952;48.364;16.022;2022-09-02T12:44:45;0.98;;;0.98;;
7813;SDS011;3952;48.364;16.022;2022-09-02T12:47:22;1.08;;;0.98;;
7813;SDS011;3952;48.364;16.022;2022-09-02T12:49:59;1.50;;;1.27;;
7813;SDS011;3952;48.364;16.022;2022-09-02T12:52:40;1.90;;;1.20;;
7813;SDS011;3952;48.364;16.022;2022-09-02T12:55:13;1.20;;;1.10;;
7813;SDS011;3952;48.364;16.022;2022-09-02T12:57:45;1.63;;;1.10;;
7813;SDS011;3952;48.364;16.022;2022-09-02T13:00:18;0.80;;;0.80;;
7813;SDS011;3952;48.364;16.022;2022-09-02T13:02:56;1.20;;;1.10;;
7813;SDS011;3952;48.364;16.022;2022-09-02T13:05:39;1.10;;;1.10;;
7813;SDS011;3952;48.364;16.022;2022-09-02T13:08:29;1.05;;;1.05;;
7813;SDS011;3952;48.364;16.022;2022-09-02T13:17:42;0.95;;;0.95;;
7813;SDS011;3952;48.364;16.022;2022-09-02T13:20:44;1.30;;;1.00;;
7813;SDS011;3952;48.364;16.022;2022-09-02T13:26:35;1.20;;;1.10;;
7813;SDS011;3952;48.364;16.022;2022-09-02T13:29:34;0.93;;;0.93;;
7813;SDS011;3952;48.364;16.022;2022-09-02T13:32:29;1.08;;;1.08;;
7813;SDS011;3952;48.364;16.022;2022-09-02T13:34:59;1.30;;;1.20;;
7813;SDS011;3952;48.364;16.022;2022-09-02T13:37:30;1.50;;;0.98;;
7813;SDS011;3952;48.364;16.022;2022-09-02T13:39:59;1.05;;;1.05;;
7813;SDS011;3952;48.364;16.022;2022-09-02T13:42:30;1.30;;;1.10;;
7813;SDS011;3952;48.364;16.022;2022-09-02T13:45:07;1.10;;;0.98;;
7813;SDS011;3952;48.364;16.022;2022-09-02T13:47:39;3.30;;;1.10;;
7813;SDS011;3952;48.364;16.022;2022-09-02T13:50:08;2.47;;;1.17;;
7813;SDS011;3952;48.364;16.022;2022-09-02T13:52:37;3.03;;;1.02;;
7813;SDS011;3952;48.364;16.022;2022-09-02T13:55:08;2.28;;;1.00;;
7813;SDS011;3952;48.364;16.022;2022-09-02T13:57:38;1.33;;;1.23;;
7813;SDS011;3952;48.364;16.022;2022-09-02T14:00:12;0.70;;;0.63;;
7813;SDS011;3952;48.364;16.022;2022-09-02T14:02:42;0.90;;;0.90;;
7813;SDS011;3952;48.364;16.022;2022-09-02T14:05:24;1.10;;;1.00;;
7813;SDS011;3952;48.364;16.022;2022-09-02T14:07:53;0.80;;;0.80;;
7813;SDS011;3952;48.364;16.022;2022-09-02T14:10:24;2.67;;;1.00;;
7813;SDS011;3952;48.364;16.022;2022-09-02T14:12:53;2.87;;;1.20;;
7813;SDS011;3952;48.364;16.022;2022-09-02T14:15:23;2.97;;;1.17;;
7813;SDS011;3952;48.364;16.022;2022-09-02T14:18:12;2.45;;;1.20;;
7813;SDS011;3952;48.364;16.022;2022-09-02T14:20:55;1.67;;;1.50;;
7813;SDS011;3952;48.364;16.022;2022-09-02T14:23:25;0.97;;;0.90;;
7813;SDS011;3952;48.364;16.022;2022-09-02T14:25:54;3.27;;;1.40;;
7813;SDS011;3952;48.364;16.022;2022-09-02T14:28:23;3.10;;;1.10;;
7813;SDS011;3952;48.364;16.022;2022-09-02T14:30:53;1.30;;;1.20;;
7813;SDS011;3952;48.364;16.022;2022-09-02T14:33:35;5.27;;;0.90;;
7813;SDS011;3952;48.364;16.022;2022-09-02T14:36:06;1.37;;;1.20;;
7813;SDS011;3952;48.364;16.022;2022-09-02T14:38:48;1.20;;;1.20;;
7813;SDS011;3952;48.364;16.022;2022-09-02T14:41:21;2.63;;;0.90;;
7813;SDS011;3952;48.364;16.022;2022-09-02T14:43:50;1.13;;;1.10;;
7813;SDS011;3952;48.364;16.022;2022-09-02T14:46:24;1.37;;;1.00;;
7813;SDS011;3952;48.364;16.022;2022-09-02T14:48:57;2.43;;;1.00;;
7813;SDS011;3952;48.364;16.022;2022-09-02T14:51:30;1.33;;;1.23;;
7813;SDS011;3952;48.364;16.022;2022-09-02T14:54:01;1.03;;;1.03;;
7813;SDS011;3952;48.364;16.022;2022-09-02T14:56:41;0.80;;;0.80;;
7813;SDS011;3952;48.364;16.022;2022-09-02T14:59:11;1.63;;;1.03;;
7813;SDS011;3952;48.364;16.022;2022-09-02T15:01:38;1.37;;;1.27;;
7813;SDS011;3952;48.364;16.022;2022-09-02T15:04:08;2.07;;;1.03;;
7813;SDS011;3952;48.364;16.022;2022-09-02T15:06:35;1.57;;;1.10;;
7813;SDS011;3952;48.364;16.022;2022-09-02T15:09:03;3.37;;;1.13;;
7813;SDS011;3952;48.364;16.022;2022-09-02T15:11:30;2.00;;;1.20;;
7813;SDS011;3952;48.364;16.022;2022-09-02T15:13:57;2.40;;;0.90;;
7813;SDS011;3952;48.364;16.022;2022-09-02T15:16:25;1.10;;;1.10;;
7813;SDS011;3952;48.364;16.022;2022-09-02T15:18:53;0.90;;;0.90;;
7813;SDS011;3952;48.364;16.022;2022-09-02T15:21:22;1.00;;;1.00;;
7813;SDS011;3952;48.364;16.022;2022-09-02T15:23:49;1.03;;;1.03;;
7813;SDS011;3952;48.364;16.022;2022-09-02T15:26:16;1.27;;;1.20;;
7813;SDS011;3952;48.364;16.022;2022-09-02T15:28:44;1.73;;;0.90;;
7813;SDS011;3952;48.364;16.022;2022-09-02T15:31:12;2.27;;;1.00;;
7813;SDS011;3952;48.364;16.022;2022-09-02T15:33:39;1.53;;;0.80;;
7813;SDS011;3952;48.364;16.022;2022-09-02T15:36:08;1.50;;;1.00;;
7813;SDS011;3952;48.364;16.022;2022-09-02T15:38:38;0.95;;;0.95;;
7813;SDS011;3952;48.364;16.022;2022-09-02T15:41:10;1.20;;;1.17;;
7813;SDS011;3952;48.364;16.022;2022-09-02T15:43:38;1.23;;;1.10;;
7813;SDS011;3952;48.364;16.022;2022-09-02T15:46:13;0.97;;;0.80;;
7813;SDS011;3952;48.364;16.022;2022-09-02T15:48:43;1.37;;;1.13;;
7813;SDS011;3952;48.364;16.022;2022-09-02T15:51:10;1.07;;;1.00;;
7813;SDS011;3952;48.364;16.022;2022-09-02T15:53:40;0.90;;;0.90;;